createdAt,value
2023-05-21T00:00:17.449Z,13.20
2023-05-21T00:02:44.654Z,13.03
2023-05-21T00:05:14.832Z,13.20
2023-05-21T00:07:42.322Z,13.10
2023-05-21T00:10:09.726Z,13.03
2023-05-21T00:12:37.304Z,11.90
2023-05-21T00:15:04.882Z,12.87
2023-05-21T00:17:32.514Z,13.50
2023-05-21T00:20:00.065Z,13.27
2023-05-21T00:22:27.284Z,13.33
2023-05-21T00:24:54.406Z,13.80
2023-05-21T00:27:21.867Z,13.63
2023-05-21T00:29:48.925Z,13.33
2023-05-21T00:32:16.067Z,13.93
2023-05-21T00:34:44.481Z,13.20
2023-05-21T00:37:11.551Z,13.33
2023-05-21T00:39:38.635Z,12.83
2023-05-21T00:42:06.042Z,12.83
2023-05-21T00:44:34.071Z,13.13
2023-05-21T00:47:04.753Z,13.17
2023-05-21T00:49:32.118Z,12.60
2023-05-21T00:52:01.490Z,13.53
2023-05-21T00:54:28.794Z,13.00
2023-05-21T00:56:56.662Z,12.53
2023-05-21T00:59:24.377Z,12.50
2023-05-21T01:01:56.417Z,12.83
2023-05-21T01:04:24.376Z,12.13
2023-05-21T01:06:53.465Z,12.93
2023-05-21T01:09:20.802Z,12.47
2023-05-21T01:11:49.024Z,12.70
2023-05-21T01:14:16.827Z,12.40
2023-05-21T01:16:48.269Z,12.43
2023-05-21T01:19:17.086Z,12.70
2023-05-21T01:21:51.355Z,13.03
2023-05-21T01:24:18.800Z,12.87
2023-05-21T01:26:46.466Z,12.67
2023-05-21T01:29:14.576Z,12.73
2023-05-21T01:32:00.900Z,12.03
2023-05-21T01:34:33.701Z,12.43
2023-05-21T01:37:04.468Z,12.67
2023-05-21T01:39:35.024Z,12.53
2023-05-21T01:42:04.217Z,12.60
2023-05-21T01:44:31.694Z,13.17
2023-05-21T01:47:00.372Z,12.73
2023-05-21T01:49:27.506Z,13.20
2023-05-21T01:51:54.736Z,13.10
2023-05-21T01:54:22.052Z,12.80
2023-05-21T01:56:50.377Z,13.37
2023-05-21T01:59:18.366Z,13.60
2023-05-21T02:01:45.580Z,12.87
2023-05-21T02:04:12.813Z,12.47
2023-05-21T02:06:40.928Z,13.33
2023-05-21T02:09:08.427Z,12.60
2023-05-21T02:11:35.637Z,12.73
2023-05-21T02:14:03.788Z,12.73
2023-05-21T02:16:30.994Z,12.73
2023-05-21T02:19:00.564Z,12.30
2023-05-21T02:21:27.959Z,13.07
2023-05-21T02:23:55.146Z,12.60
2023-05-21T02:26:22.700Z,12.80
2023-05-21T02:28:49.838Z,12.57
2023-05-21T02:31:17.077Z,11.83
2023-05-21T02:33:44.316Z,12.50
2023-05-21T02:36:13.241Z,12.53
2023-05-21T02:38:44.154Z,13.23
2023-05-21T02:41:11.885Z,12.03
2023-05-21T02:43:39.067Z,12.30
2023-05-21T02:46:07.571Z,12.30
2023-05-21T02:48:34.755Z,12.70
2023-05-21T02:51:01.924Z,12.83
2023-05-21T02:53:29.399Z,11.93
2023-05-21T02:55:56.844Z,12.37
2023-05-21T02:58:25.191Z,13.13
2023-05-21T03:00:53.968Z,12.27
2023-05-21T03:03:21.195Z,12.67
2023-05-21T03:05:48.462Z,12.80
2023-05-21T03:08:15.809Z,12.77
2023-05-21T03:10:42.932Z,12.77
2023-05-21T03:13:10.161Z,12.10
2023-05-21T03:15:39.637Z,13.17
2023-05-21T03:18:06.991Z,12.43
2023-05-21T03:20:34.190Z,12.47
2023-05-21T03:23:04.674Z,12.10
2023-05-21T03:25:31.849Z,12.53
2023-05-21T03:27:58.992Z,12.00
2023-05-21T03:30:26.468Z,13.03
2023-05-21T03:32:53.650Z,12.13
2023-05-21T03:35:20.952Z,12.53
2023-05-21T03:37:48.149Z,12.73
2023-05-21T03:40:15.676Z,12.60
2023-05-21T03:42:42.796Z,12.13
2023-05-21T03:45:10.130Z,12.87
2023-05-21T03:47:37.340Z,12.90
2023-05-21T03:50:05.662Z,12.63
2023-05-21T03:52:32.787Z,11.90
2023-05-21T03:54:59.891Z,12.77
2023-05-21T03:57:26.989Z,12.67
2023-05-21T03:59:54.104Z,13.20
2023-05-21T04:02:22.955Z,13.27
2023-05-21T04:04:51.677Z,13.63
2023-05-21T04:07:19.491Z,12.57
2023-05-21T04:09:46.951Z,12.33
2023-05-21T04:12:14.102Z,13.13
2023-05-21T04:14:41.916Z,13.33
2023-05-21T04:17:09.018Z,13.07
2023-05-21T04:19:36.467Z,13.37
2023-05-21T04:22:03.662Z,13.00
2023-05-21T04:24:31.018Z,13.57
2023-05-21T04:27:01.196Z,13.27
2023-05-21T04:29:30.160Z,12.60
2023-05-21T04:31:57.339Z,13.00
2023-05-21T04:34:24.813Z,13.07
2023-05-21T04:36:52.355Z,13.83
2023-05-21T04:39:19.453Z,13.77
2023-05-21T04:41:46.550Z,13.20
2023-05-21T04:44:15.027Z,13.27
2023-05-21T04:46:42.734Z,13.53
2023-05-21T04:49:11.532Z,13.10
2023-05-21T04:51:38.723Z,12.80
2023-05-21T04:54:06.067Z,13.63
2023-05-21T04:56:33.172Z,13.70
2023-05-21T04:59:00.323Z,14.00
2023-05-21T05:01:29.461Z,14.27
2023-05-21T05:03:56.710Z,13.37
2023-05-21T05:06:26.220Z,13.13
2023-05-21T05:08:53.506Z,13.07
2023-05-21T05:11:20.805Z,13.27
2023-05-21T05:13:47.978Z,13.73
2023-05-21T05:16:17.906Z,13.30
2023-05-21T05:18:45.151Z,13.40
2023-05-21T05:21:12.559Z,13.90
2023-05-21T05:23:39.678Z,13.33
2023-05-21T05:26:06.786Z,12.87
2023-05-21T05:28:33.866Z,13.53
2023-05-21T05:31:01.371Z,12.87
2023-05-21T05:33:28.542Z,12.27
2023-05-21T05:35:55.758Z,12.27
2023-05-21T05:38:22.883Z,12.33
2023-05-21T05:40:49.974Z,13.17
2023-05-21T05:43:17.152Z,12.17
2023-05-21T05:45:44.323Z,12.60
2023-05-21T05:48:11.992Z,12.50
2023-05-21T05:50:39.105Z,12.43
2023-05-21T05:53:07.280Z,12.40
2023-05-21T05:55:34.775Z,12.77
2023-05-21T05:58:02.048Z,12.90
2023-05-21T06:00:29.152Z,12.93
2023-05-21T06:02:56.368Z,12.07
2023-05-21T06:05:23.925Z,12.27
2023-05-21T06:07:51.092Z,12.43
2023-05-21T06:10:20.396Z,12.13
2023-05-21T06:12:47.875Z,11.97
2023-05-21T06:15:15.090Z,12.63
2023-05-21T06:17:42.230Z,12.43
2023-05-21T06:20:10.148Z,12.20
2023-05-21T06:22:37.261Z,12.20
2023-05-21T06:25:04.763Z,11.93
2023-05-21T06:27:32.484Z,11.80
2023-05-21T06:29:59.591Z,11.80
2023-05-21T06:32:26.841Z,12.47
2023-05-21T06:34:54.297Z,11.17
2023-05-21T06:37:22.000Z,11.37
2023-05-21T06:39:49.221Z,11.30
2023-05-21T06:42:16.401Z,11.67
2023-05-21T06:44:43.538Z,11.33
2023-05-21T06:47:10.762Z,10.97
2023-05-21T06:49:38.040Z,10.90
2023-05-21T06:52:05.309Z,11.47
2023-05-21T06:54:32.836Z,11.27
2023-05-21T06:57:00.046Z,11.40
2023-05-21T06:59:27.129Z,11.70
2023-05-21T07:01:54.238Z,10.40
2023-05-21T07:04:21.710Z,11.20
2023-05-21T07:06:48.785Z,11.33
2023-05-21T07:09:15.958Z,11.30
2023-05-21T07:11:43.354Z,11.47
2023-05-21T07:14:10.710Z,10.77
2023-05-21T07:16:37.855Z,11.13
2023-05-21T07:19:05.082Z,11.40
2023-05-21T07:21:32.220Z,10.80
2023-05-21T07:23:59.390Z,10.90
2023-05-21T07:26:26.540Z,10.73
2023-05-21T07:28:53.643Z,10.80
2023-05-21T07:31:20.755Z,10.90
2023-05-21T07:33:47.921Z,11.13
2023-05-21T07:36:15.032Z,10.53
2023-05-21T07:38:42.214Z,10.70
2023-05-21T07:41:09.369Z,10.53
2023-05-21T07:43:36.932Z,10.53
2023-05-21T07:46:04.100Z,10.93
2023-05-21T07:48:32.559Z,10.57
2023-05-21T07:51:01.479Z,10.60
2023-05-21T07:53:32.511Z,10.60
2023-05-21T07:56:00.380Z,11.37
2023-05-21T07:58:27.474Z,10.17
2023-05-21T08:00:55.048Z,10.63
2023-05-21T08:03:22.898Z,10.70
2023-05-21T08:05:50.741Z,10.20
2023-05-21T08:08:18.742Z,10.17
2023-05-21T08:10:46.425Z,10.20
2023-05-21T08:13:13.852Z,10.47
2023-05-21T08:15:41.616Z,10.67
2023-05-21T08:18:09.056Z,10.60
2023-05-21T08:20:36.277Z,10.70
2023-05-21T08:23:04.396Z,10.57
2023-05-21T08:25:31.545Z,10.80
2023-05-21T08:27:58.736Z,10.63
2023-05-21T08:30:25.932Z,10.52
2023-05-21T08:32:53.055Z,10.18
2023-05-21T08:35:20.146Z,10.25
2023-05-21T08:37:47.561Z,9.73
2023-05-21T08:40:14.951Z,9.98
2023-05-21T08:42:52.558Z,10.27
2023-05-21T08:45:23.919Z,10.30
2023-05-21T08:47:58.315Z,10.20
2023-05-21T08:50:27.270Z,9.85
2023-05-21T08:52:55.353Z,10.13
2023-05-21T08:55:23.611Z,9.77
2023-05-21T08:57:51.420Z,10.02
2023-05-21T09:00:20.651Z,9.63
2023-05-21T09:02:47.816Z,9.80
2023-05-21T09:05:15.905Z,10.23
2023-05-21T09:07:50.386Z,10.17
2023-05-21T09:10:20.780Z,9.53
2023-05-21T09:12:48.871Z,9.77
2023-05-21T09:15:16.083Z,9.73
2023-05-21T09:17:43.184Z,10.00
2023-05-21T09:20:12.062Z,10.33
2023-05-21T09:22:42.962Z,10.20
2023-05-21T09:25:14.854Z,9.83
2023-05-21T09:27:42.023Z,9.23
2023-05-21T09:30:21.031Z,9.40
2023-05-21T09:32:58.043Z,9.50
2023-05-21T09:35:25.607Z,9.80
2023-05-21T09:37:53.651Z,9.43
2023-05-21T09:40:21.580Z,9.93
2023-05-21T09:42:49.609Z,9.70
2023-05-21T09:45:20.417Z,9.30
2023-05-21T09:47:48.272Z,10.13
2023-05-21T09:52:46.746Z,9.50
2023-05-21T09:55:14.155Z,9.47
2023-05-21T09:57:42.834Z,9.57
2023-05-21T10:00:17.695Z,9.07
2023-05-21T10:02:47.107Z,9.73
2023-05-21T10:05:15.116Z,9.60
2023-05-21T10:07:42.853Z,9.03
2023-05-21T10:10:12.597Z,9.20
2023-05-21T10:12:40.620Z,8.93
2023-05-21T10:15:09.910Z,9.10
2023-05-21T10:17:37.218Z,9.47
2023-05-21T10:20:05.654Z,8.83
2023-05-21T10:22:33.010Z,9.00
2023-05-21T10:25:02.977Z,9.07
2023-05-21T10:27:32.469Z,9.17
2023-05-21T10:30:00.380Z,8.80
2023-05-21T10:32:28.256Z,9.23
2023-05-21T10:34:55.684Z,9.27
2023-05-21T10:37:29.092Z,10.20
2023-05-21T10:39:56.881Z,9.87
2023-05-21T10:42:46.806Z,9.60
2023-05-21T10:45:16.714Z,8.37
2023-05-21T10:47:46.800Z,8.90
2023-05-21T10:50:23.114Z,8.23
2023-05-21T10:52:53.520Z,8.17
2023-05-21T10:55:38.647Z,7.33
2023-05-21T10:58:09.166Z,7.53
2023-05-21T11:00:36.924Z,7.17
2023-05-21T11:03:04.958Z,6.20
2023-05-21T11:05:42.578Z,6.60
2023-05-21T11:08:22.891Z,5.93
2023-05-21T11:10:58.029Z,6.30
2023-05-21T11:13:26.424Z,5.57
2023-05-21T11:16:00.230Z,6.13
2023-05-21T11:18:39.510Z,5.97
2023-05-21T11:21:07.671Z,6.67
2023-05-21T11:23:53.611Z,5.37
2023-05-21T11:26:24.972Z,5.87
2023-05-21T11:29:07.427Z,6.00
2023-05-21T11:31:41.227Z,6.00
2023-05-21T11:34:15.254Z,6.70
2023-05-21T11:36:43.186Z,7.23
2023-05-21T11:39:23.781Z,7.00
2023-05-21T11:42:09.144Z,6.77
2023-05-21T11:44:40.059Z,6.60
2023-05-21T11:47:07.744Z,6.60
2023-05-21T11:49:35.191Z,6.87
2023-05-21T11:52:02.835Z,6.33
2023-05-21T11:54:39.830Z,7.10
2023-05-21T11:57:07.991Z,6.70
2023-05-21T11:59:35.235Z,6.70
2023-05-21T12:02:03.045Z,7.30
2023-05-21T12:04:36.373Z,7.27
2023-05-21T12:07:09.984Z,7.37
2023-05-21T12:09:44.265Z,8.20
2023-05-21T12:14:55.187Z,8.53
2023-05-21T12:17:23.431Z,8.03
2023-05-21T12:19:54.022Z,8.70
2023-05-21T12:22:21.718Z,7.87
2023-05-21T12:24:48.941Z,8.20
2023-05-21T12:27:16.761Z,8.33
2023-05-21T12:29:44.953Z,8.27
2023-05-21T12:32:13.215Z,8.70
2023-05-21T12:34:46.441Z,8.27
2023-05-21T12:37:17.367Z,8.20
2023-05-21T12:39:45.130Z,8.57
2023-05-21T12:42:12.786Z,8.73
2023-05-21T12:44:47.696Z,8.00
2023-05-21T12:47:14.864Z,9.03
2023-05-21T12:49:42.767Z,8.30
2023-05-21T12:52:11.077Z,8.27
2023-05-21T12:54:39.194Z,8.73
2023-05-21T12:57:06.820Z,8.60
2023-05-21T13:00:00.696Z,9.30
2023-05-21T13:02:55.754Z,9.60
2023-05-21T13:05:23.232Z,10.07
2023-05-21T13:07:51.582Z,9.30
2023-05-21T13:10:18.798Z,9.67
2023-05-21T13:12:46.593Z,9.43
2023-05-21T13:15:13.794Z,9.57
2023-05-21T13:17:40.914Z,10.27
2023-05-21T13:20:09.457Z,9.73
2023-05-21T13:22:45.121Z,10.23
2023-05-21T13:25:12.300Z,9.37
2023-05-21T13:27:40.033Z,9.60
2023-05-21T13:30:07.519Z,9.60
2023-05-21T13:32:34.827Z,9.53
2023-05-21T13:35:02.166Z,9.20
2023-05-21T13:37:29.232Z,9.33
2023-05-21T13:39:56.634Z,9.07
2023-05-21T13:42:23.803Z,9.73
2023-05-21T13:44:51.215Z,10.13
2023-05-21T13:47:18.361Z,9.70
2023-05-21T13:49:45.477Z,9.97
2023-05-21T13:52:12.596Z,7.03
2023-05-21T13:54:41.105Z,5.90
2023-05-21T13:57:08.259Z,5.77
2023-05-21T13:59:35.390Z,5.50
2023-05-21T14:02:02.560Z,5.90
2023-05-21T14:04:29.688Z,6.10
2023-05-21T14:06:56.811Z,6.17
2023-05-21T14:09:27.374Z,6.43
2023-05-21T14:11:56.025Z,6.30
2023-05-21T14:14:23.626Z,6.30
2023-05-21T14:16:51.686Z,6.77
2023-05-21T14:19:19.046Z,6.97
2023-05-21T14:21:46.169Z,6.50
2023-05-21T14:24:13.290Z,7.27
2023-05-21T14:26:43.658Z,7.13
2023-05-21T14:29:10.779Z,6.97
2023-05-21T14:35:06.450Z,6.47
2023-05-21T14:37:33.869Z,7.20
2023-05-21T14:40:01.027Z,7.10
2023-05-21T14:42:28.122Z,6.50
2023-05-21T14:44:55.274Z,6.33
2023-05-21T14:47:22.493Z,6.17
2023-05-21T14:49:51.639Z,6.97
2023-05-21T14:52:18.871Z,5.93
2023-05-21T14:54:46.053Z,5.83
2023-05-21T14:57:13.159Z,5.90
2023-05-21T14:59:40.364Z,6.50
2023-05-21T15:02:07.437Z,6.20
2023-05-21T15:04:34.512Z,6.20
2023-05-21T15:07:01.630Z,6.50
2023-05-21T15:09:28.714Z,6.20
2023-05-21T15:11:55.809Z,6.33
2023-05-21T15:14:22.916Z,7.30
2023-05-21T15:16:50.150Z,6.70
2023-05-21T15:19:17.538Z,7.07
2023-05-21T15:21:44.691Z,7.60
2023-05-21T15:24:11.776Z,7.40
2023-05-21T15:26:38.909Z,6.63
2023-05-21T15:29:06.546Z,7.00
2023-05-21T15:31:33.714Z,6.97
2023-05-21T15:34:00.848Z,6.80
2023-05-21T15:36:28.372Z,6.60
2023-05-21T15:38:55.547Z,6.33
2023-05-21T15:41:22.691Z,6.30
2023-05-21T15:43:49.812Z,5.83
2023-05-21T15:46:17.045Z,5.90
2023-05-21T15:48:44.144Z,5.97
2023-05-21T15:51:11.588Z,5.90
2023-05-21T15:53:38.675Z,5.53
2023-05-21T15:56:05.986Z,5.60
2023-05-21T15:58:33.590Z,5.60
2023-05-21T16:01:00.797Z,5.07
2023-05-21T16:03:27.985Z,5.73
2023-05-21T16:05:55.174Z,5.33
2023-05-21T16:08:22.319Z,5.70
2023-05-21T16:10:49.401Z,5.77
2023-05-21T16:13:16.592Z,5.57
2023-05-21T16:15:43.716Z,5.80
2023-05-21T16:18:11.576Z,5.13
2023-05-21T16:20:39.411Z,5.67
2023-05-21T16:23:06.659Z,5.30
2023-05-21T16:25:36.124Z,5.03
2023-05-21T16:28:03.975Z,5.33
2023-05-21T16:30:31.086Z,5.50
2023-05-21T16:32:58.251Z,5.50
2023-05-21T16:35:25.836Z,5.90
2023-05-21T16:37:52.944Z,5.87
2023-05-21T16:40:20.031Z,5.20
2023-05-21T16:42:47.425Z,5.77
2023-05-21T16:45:20.371Z,5.87
2023-05-21T16:47:51.632Z,5.10
2023-05-21T16:50:19.828Z,5.07
2023-05-21T16:52:46.883Z,5.53
2023-05-21T16:55:14.364Z,5.17
2023-05-21T16:57:41.456Z,5.17
2023-05-21T17:00:08.920Z,5.07
2023-05-21T17:02:36.130Z,4.90
2023-05-21T17:05:03.314Z,4.90
2023-05-21T17:07:31.431Z,5.00
2023-05-21T17:09:58.865Z,4.90
2023-05-21T17:12:26.112Z,4.70
2023-05-21T17:14:53.871Z,5.10
2023-05-21T17:17:21.289Z,5.07
2023-05-21T17:19:48.377Z,5.00
2023-05-21T17:22:15.564Z,4.70
2023-05-21T17:24:42.904Z,5.00
2023-05-21T17:27:10.638Z,5.03
2023-05-21T17:29:37.748Z,4.80
2023-05-21T17:32:05.150Z,5.40
2023-05-21T17:34:32.330Z,5.10
2023-05-21T17:36:59.776Z,5.63
2023-05-21T17:39:26.935Z,4.93
2023-05-21T17:41:54.067Z,5.20
2023-05-21T17:44:21.590Z,5.37
2023-05-21T17:46:52.030Z,5.40
2023-05-21T17:49:19.303Z,5.23
2023-05-21T17:51:46.477Z,5.77
2023-05-21T17:54:13.936Z,5.20
2023-05-21T17:56:41.167Z,5.83
2023-05-21T17:59:11.529Z,5.83
2023-05-21T18:01:39.685Z,5.83
2023-05-21T18:04:12.192Z,5.60
2023-05-21T18:06:40.432Z,5.53
2023-05-21T18:09:07.932Z,5.33
2023-05-21T18:11:35.471Z,6.20
2023-05-21T18:14:03.972Z,5.47
2023-05-21T18:16:31.647Z,5.40
2023-05-21T18:19:00.598Z,5.60
2023-05-21T18:21:28.112Z,5.43
2023-05-21T18:23:55.373Z,5.97
2023-05-21T18:26:22.543Z,5.90
2023-05-21T18:28:49.837Z,6.07
2023-05-21T18:31:17.258Z,5.90
2023-05-21T18:33:44.381Z,5.73
2023-05-21T18:36:11.556Z,5.33
2023-05-21T18:38:39.170Z,5.70
2023-05-21T18:41:07.645Z,5.43
2023-05-21T18:43:35.152Z,5.63
2023-05-21T18:46:02.348Z,5.50
2023-05-21T18:48:29.456Z,5.57
2023-05-21T18:50:56.765Z,5.57
2023-05-21T18:53:23.877Z,5.20
2023-05-21T18:55:51.301Z,5.37
2023-05-21T18:58:18.800Z,5.77
2023-05-21T19:00:45.943Z,5.30
2023-05-21T19:03:13.062Z,5.30
2023-05-21T19:05:40.583Z,5.27
2023-05-21T19:08:07.696Z,5.40
2023-05-21T19:10:34.893Z,5.10
2023-05-21T19:13:03.826Z,5.53
2023-05-21T19:15:32.116Z,5.80
2023-05-21T19:18:01.098Z,5.50
2023-05-21T19:20:28.651Z,5.47
2023-05-21T19:22:55.785Z,5.17
2023-05-21T19:25:23.414Z,5.80
2023-05-21T19:27:50.734Z,5.40
2023-05-21T19:30:17.887Z,5.50
2023-05-21T19:32:45.075Z,5.10
2023-05-21T19:35:12.249Z,5.60
2023-05-21T19:37:39.425Z,5.90
2023-05-21T19:40:07.329Z,5.03
2023-05-21T19:42:34.422Z,5.77
2023-05-21T19:45:01.533Z,5.13
2023-05-21T19:47:28.762Z,5.27
2023-05-21T19:49:56.405Z,5.50
2023-05-21T19:52:23.515Z,5.10
2023-05-21T19:54:51.099Z,5.00
2023-05-21T19:57:18.285Z,5.17
2023-05-21T19:59:45.382Z,4.90
2023-05-21T20:02:13.213Z,5.30
2023-05-21T20:04:40.577Z,5.10
2023-05-21T20:07:07.961Z,5.27
2023-05-21T20:09:35.095Z,5.13
2023-05-21T20:12:02.263Z,5.30
2023-05-21T20:14:29.394Z,5.10
2023-05-21T20:16:58.449Z,5.10
2023-05-21T20:19:25.870Z,4.80
2023-05-21T20:21:53.336Z,5.20
2023-05-21T20:24:20.788Z,5.47
2023-05-21T20:26:47.967Z,5.00
2023-05-21T20:29:15.109Z,5.23
2023-05-21T20:31:42.385Z,5.07
2023-05-21T20:34:10.493Z,4.73
2023-05-21T20:36:37.631Z,4.90
2023-05-21T20:39:04.907Z,5.10
2023-05-21T20:41:38.984Z,4.80
2023-05-21T20:44:06.649Z,4.77
2023-05-21T20:46:34.231Z,4.67
2023-05-21T20:49:01.855Z,4.87
2023-05-21T20:51:28.952Z,5.03
2023-05-21T20:53:57.011Z,5.10
2023-05-21T20:56:41.017Z,5.13
2023-05-21T20:59:10.864Z,5.03
2023-05-21T21:01:41.450Z,4.80
2023-05-21T21:04:09.072Z,4.67
2023-05-21T21:06:38.297Z,4.73
2023-05-21T21:11:50.850Z,5.20
2023-05-21T21:14:17.998Z,5.37
2023-05-21T21:16:45.276Z,5.10
2023-05-21T21:19:12.507Z,5.00
2023-05-21T21:21:39.684Z,5.13
2023-05-21T21:24:07.002Z,5.17
2023-05-21T21:26:34.441Z,5.30
2023-05-21T21:29:01.607Z,5.07
2023-05-21T21:31:29.607Z,5.37
2023-05-21T21:33:58.132Z,5.27
2023-05-21T21:36:25.241Z,5.20
2023-05-21T21:38:52.328Z,5.20
2023-05-21T21:41:20.585Z,5.10
2023-05-21T21:43:47.703Z,5.33
2023-05-21T21:46:15.253Z,5.40
2023-05-21T21:48:42.760Z,5.67
2023-05-21T21:51:09.903Z,5.60
2023-05-21T21:53:37.032Z,5.10
2023-05-21T21:56:04.537Z,5.20
2023-05-21T21:58:31.772Z,5.47
2023-05-21T22:00:59.078Z,5.60
2023-05-21T22:03:26.539Z,5.40
2023-05-21T22:05:55.059Z,5.60
2023-05-21T22:08:22.167Z,5.57
2023-05-21T22:10:49.663Z,5.47
2023-05-21T22:13:16.791Z,5.50
2023-05-21T22:15:43.998Z,5.60
2023-05-21T22:18:12.528Z,5.60
2023-05-21T22:20:39.886Z,5.73
2023-05-21T22:23:07.276Z,6.10
2023-05-21T22:25:34.722Z,5.53
2023-05-21T22:28:01.824Z,5.80
2023-05-21T22:30:28.953Z,5.63
2023-05-21T22:32:59.433Z,5.47
2023-05-21T22:35:26.754Z,5.23
2023-05-21T22:37:53.853Z,5.53
2023-05-21T22:40:21.358Z,5.60
2023-05-21T22:42:48.545Z,4.90
2023-05-21T22:45:15.715Z,5.20
2023-05-21T22:47:43.443Z,5.53
2023-05-21T22:50:10.895Z,5.17
2023-05-21T22:52:38.251Z,5.50
2023-05-21T22:55:06.582Z,5.43
2023-05-21T22:57:33.726Z,5.23
2023-05-21T23:00:00.957Z,5.33
2023-05-21T23:02:28.424Z,6.07
2023-05-21T23:04:55.729Z,5.77
2023-05-21T23:07:22.879Z,5.30
2023-05-21T23:09:51.999Z,5.33
2023-05-21T23:12:19.147Z,5.60
2023-05-21T23:14:46.301Z,5.90
2023-05-21T23:17:14.567Z,5.53
2023-05-21T23:19:41.708Z,5.70
2023-05-21T23:22:08.879Z,5.83
2023-05-21T23:24:36.360Z,5.50
2023-05-21T23:27:03.599Z,5.57
2023-05-21T23:29:31.076Z,5.43
2023-05-21T23:31:58.827Z,5.90
2023-05-21T23:34:26.038Z,5.70
2023-05-21T23:36:53.255Z,5.40
2023-05-21T23:39:21.341Z,5.93
2023-05-21T23:41:48.638Z,5.90
2023-05-21T23:44:16.106Z,5.60
2023-05-21T23:46:43.976Z,5.37
2023-05-21T23:49:11.615Z,5.43
2023-05-21T23:51:39.040Z,5.23
2023-05-21T23:54:06.981Z,5.43
2023-05-21T23:56:34.233Z,5.37
2023-05-21T23:59:01.425Z,5.30
